sensor_id;sensor_type;location;lat;lon;timestamp;pressure;altitude;pressure_sealevel;temperature;humidity
73383;BME280;61600;48.126;11.542;2022-10-17T00:00:51;96219.56;;;17.10;66.40
73383;BME280;61600;48.126;11.542;2022-10-17T00:03:23;96221.63;;;17.05;66.49
73383;BME280;61600;48.126;11.542;2022-10-17T00:05:48;96226.00;;;17.06;66.11
73383;BME280;61600;48.126;11.542;2022-10-17T00:08:16;96229.19;;;16.99;66.19
73383;BME280;61600;48.126;11.542;2022-10-17T00:10:42;96224.44;;;16.91;66.00
73383;BME280;61600;48.126;11.542;2022-10-17T00:13:11;96227.75;;;17.02;66.35
73383;BME280;61600;48.126;11.542;2022-10-17T00:15:42;96235.56;;;17.08;66.42
73383;BME280;61600;48.126;11.542;2022-10-17T00:18:08;96228.81;;;17.14;66.04
73383;BME280;61600;48.126;11.542;2022-10-17T00:20:34;96229.31;;;17.16;65.37
73383;BME280;61600;48.126;11.542;2022-10-17T00:23:00;96232.56;;;17.18;65.27
73383;BME280;61600;48.126;11.542;2022-10-17T00:25:26;96228.88;;;17.23;65.47
73383;BME280;61600;48.126;11.542;2022-10-17T00:27:54;96223.50;;;17.18;65.09
73383;BME280;61600;48.126;11.542;2022-10-17T00:30:20;96224.13;;;17.15;65.25
73383;BME280;61600;48.126;11.542;2022-10-17T00:32:45;96228.03;;;17.00;65.46
73383;BME280;61600;48.126;11.542;2022-10-17T00:35:11;96224.09;;;16.92;66.34
73383;BME280;61600;48.126;11.542;2022-10-17T00:37:37;96234.91;;;16.89;65.88
73383;BME280;61600;48.126;11.542;2022-10-17T00:40:04;96227.41;;;16.81;66.55
73383;BME280;61600;48.126;11.542;2022-10-17T00:42:30;96228.03;;;16.78;66.68
73383;BME280;61600;48.126;11.542;2022-10-17T00:47:24;96231.19;;;16.71;66.37
73383;BME280;61600;48.126;11.542;2022-10-17T00:49:49;96226.03;;;16.70;66.74
73383;BME280;61600;48.126;11.542;2022-10-17T00:52:19;96232.53;;;16.74;65.91
73383;BME280;61600;48.126;11.542;2022-10-17T00:55:23;96239.38;;;16.63;66.51
73383;BME280;61600;48.126;11.542;2022-10-17T00:57:48;96246.31;;;16.60;66.53
73383;BME280;61600;48.126;11.542;2022-10-17T01:00:18;96238.84;;;16.61;67.23
73383;BME280;61600;48.126;11.542;2022-10-17T01:02:44;96253.31;;;16.53;66.69
73383;BME280;61600;48.126;11.542;2022-10-17T01:05:13;96251.38;;;16.53;66.90
73383;BME280;61600;48.126;11.542;2022-10-17T01:07:40;96250.03;;;16.50;66.74
73383;BME280;61600;48.126;11.542;2022-10-17T01:10:10;96251.88;;;16.55;66.59
73383;BME280;61600;48.126;11.542;2022-10-17T01:12:56;96254.94;;;16.54;66.46
73383;BME280;61600;48.126;11.542;2022-10-17T01:21:23;96248.75;;;16.34;66.40
73383;BME280;61600;48.126;11.542;2022-10-17T01:24:24;96252.81;;;16.37;66.63
73383;BME280;61600;48.126;11.542;2022-10-17T01:30:28;96246.78;;;16.48;65.85
73383;BME280;61600;48.126;11.542;2022-10-17T01:33:13;96237.25;;;16.46;65.92
73383;BME280;61600;48.126;11.542;2022-10-17T01:35:53;96241.00;;;16.50;65.56
73383;BME280;61600;48.126;11.542;2022-10-17T01:38:33;96233.25;;;16.52;65.21
73383;BME280;61600;48.126;11.542;2022-10-17T01:41:28;96240.38;;;16.53;65.08
73383;BME280;61600;48.126;11.542;2022-10-17T01:44:02;96245.16;;;16.47;64.81
73383;BME280;61600;48.126;11.542;2022-10-17T01:46:41;96235.03;;;16.21;66.06
73383;BME280;61600;48.126;11.542;2022-10-17T01:49:09;96242.66;;;16.24;66.24
73383;BME280;61600;48.126;11.542;2022-10-17T01:54:54;96236.47;;;16.32;65.92
73383;BME280;61600;48.126;11.542;2022-10-17T01:57:27;96241.13;;;16.31;65.41
73383;BME280;61600;48.126;11.542;2022-10-17T02:00:02;96238.69;;;16.30;65.17
73383;BME280;61600;48.126;11.542;2022-10-17T02:02:30;96239.50;;;16.30;64.90
73383;BME280;61600;48.126;11.542;2022-10-17T02:05:00;96237.06;;;16.29;65.37
73383;BME280;61600;48.126;11.542;2022-10-17T02:07:29;96240.50;;;16.34;64.89
73383;BME280;61600;48.126;11.542;2022-10-17T02:10:02;96232.50;;;16.24;64.42
73383;BME280;61600;48.126;11.542;2022-10-17T02:20:59;96235.06;;;16.07;65.30
73383;BME280;61600;48.126;11.542;2022-10-17T02:26:43;96232.31;;;16.07;65.46
73383;BME280;61600;48.126;11.542;2022-10-17T02:29:23;96228.84;;;16.02;65.06
73383;BME280;61600;48.126;11.542;2022-10-17T02:31:59;96234.66;;;16.00;65.45
73383;BME280;61600;48.126;11.542;2022-10-17T02:37:02;96240.34;;;16.04;65.13
73383;BME280;61600;48.126;11.542;2022-10-17T02:39:30;96237.88;;;16.02;65.16
73383;BME280;61600;48.126;11.542;2022-10-17T02:42:02;96239.53;;;16.03;65.27
73383;BME280;61600;48.126;11.542;2022-10-17T02:44:31;96234.72;;;15.95;65.93
73383;BME280;61600;48.126;11.542;2022-10-17T02:47:14;96233.91;;;15.94;65.27
73383;BME280;61600;48.126;11.542;2022-10-17T02:49:46;96238.78;;;15.97;65.05
73383;BME280;61600;48.126;11.542;2022-10-17T02:52:37;96234.44;;;15.96;64.78
73383;BME280;61600;48.126;11.542;2022-10-17T02:55:18;96225.41;;;15.96;64.86
73383;BME280;61600;48.126;11.542;2022-10-17T02:57:52;96235.44;;;15.87;65.02
73383;BME280;61600;48.126;11.542;2022-10-17T03:00:21;96238.19;;;15.87;64.55
73383;BME280;61600;48.126;11.542;2022-10-17T03:02:49;96241.25;;;15.85;64.65
73383;BME280;61600;48.126;11.542;2022-10-17T03:05:18;96232.41;;;15.88;64.76
73383;BME280;61600;48.126;11.542;2022-10-17T03:07:50;96237.38;;;15.86;64.98
73383;BME280;61600;48.126;11.542;2022-10-17T03:10:16;96236.50;;;15.59;65.95
73383;BME280;61600;48.126;11.542;2022-10-17T03:12:42;96238.06;;;15.51;66.20
73383;BME280;61600;48.126;11.542;2022-10-17T03:15:08;96249.53;;;15.53;65.55
73383;BME280;61600;48.126;11.542;2022-10-17T03:17:34;96241.44;;;15.62;65.90
73383;BME280;61600;48.126;11.542;2022-10-17T03:20:05;96243.75;;;15.68;65.76
73383;BME280;61600;48.126;11.542;2022-10-17T03:22:31;96245.09;;;15.71;65.22
73383;BME280;61600;48.126;11.542;2022-10-17T03:24:57;96236.34;;;15.69;64.91
73383;BME280;61600;48.126;11.542;2022-10-17T03:27:23;96243.97;;;15.72;65.06
73383;BME280;61600;48.126;11.542;2022-10-17T03:29:52;96242.94;;;15.68;64.61
73383;BME280;61600;48.126;11.542;2022-10-17T03:32:17;96242.63;;;15.69;65.03
73383;BME280;61600;48.126;11.542;2022-10-17T03:34:43;96247.31;;;15.69;64.56
73383;BME280;61600;48.126;11.542;2022-10-17T03:37:12;96251.81;;;15.46;65.78
73383;BME280;61600;48.126;11.542;2022-10-17T03:39:37;96259.16;;;15.51;65.61
73383;BME280;61600;48.126;11.542;2022-10-17T03:42:03;96261.81;;;15.56;65.42
73383;BME280;61600;48.126;11.542;2022-10-17T03:44:28;96257.66;;;15.58;65.33
73383;BME280;61600;48.126;11.542;2022-10-17T03:46:54;96257.28;;;15.65;64.91
73383;BME280;61600;48.126;11.542;2022-10-17T03:49:20;96256.53;;;15.59;65.17
73383;BME280;61600;48.126;11.542;2022-10-17T03:51:45;96253.56;;;15.56;65.14
73383;BME280;61600;48.126;11.542;2022-10-17T03:54:11;96264.34;;;15.52;65.78
73383;BME280;61600;48.126;11.542;2022-10-17T03:56:37;96263.84;;;15.31;65.71
73383;BME280;61600;48.126;11.542;2022-10-17T03:59:05;96261.22;;;15.26;66.04
73383;BME280;61600;48.126;11.542;2022-10-17T04:01:31;96267.19;;;15.28;67.03
73383;BME280;61600;48.126;11.542;2022-10-17T04:03:59;96268.41;;;15.04;66.69
73383;BME280;61600;48.126;11.542;2022-10-17T04:06:25;96265.00;;;15.12;67.50
73383;BME280;61600;48.126;11.542;2022-10-17T04:09:01;96261.38;;;15.16;67.12
73383;BME280;61600;48.126;11.542;2022-10-17T04:11:27;96263.81;;;14.99;67.31
73383;BME280;61600;48.126;11.542;2022-10-17T04:13:54;96271.59;;;15.11;66.81
73383;BME280;61600;48.126;11.542;2022-10-17T04:16:20;96271.97;;;15.23;66.46
73383;BME280;61600;48.126;11.542;2022-10-17T04:18:46;96274.22;;;15.34;66.03
73383;BME280;61600;48.126;11.542;2022-10-17T04:21:16;96278.16;;;15.28;66.88
73383;BME280;61600;48.126;11.542;2022-10-17T04:23:43;96269.72;;;15.25;66.75
73383;BME280;61600;48.126;11.542;2022-10-17T04:26:08;96272.66;;;15.28;66.61
73383;BME280;61600;48.126;11.542;2022-10-17T04:28:34;96264.03;;;15.21;66.12
73383;BME280;61600;48.126;11.542;2022-10-17T04:31:06;96275.38;;;15.15;66.99
73383;BME280;61600;48.126;11.542;2022-10-17T04:33:32;96276.56;;;15.09;67.12
73383;BME280;61600;48.126;11.542;2022-10-17T04:36:05;96277.94;;;15.25;67.17
73383;BME280;61600;48.126;11.542;2022-10-17T04:38:31;96277.75;;;15.35;66.32
73383;BME280;61600;48.126;11.542;2022-10-17T04:41:03;96279.41;;;15.36;66.38
73383;BME280;61600;48.126;11.542;2022-10-17T04:43:30;96288.81;;;15.48;65.37
73383;BME280;61600;48.126;11.542;2022-10-17T04:45:58;96287.41;;;15.51;65.48
73383;BME280;61600;48.126;11.542;2022-10-17T04:48:24;96284.22;;;15.44;65.82
73383;BME280;61600;48.126;11.542;2022-10-17T04:50:54;96287.19;;;15.29;66.31
73383;BME280;61600;48.126;11.542;2022-10-17T04:53:21;96289.13;;;15.28;66.23
73383;BME280;61600;48.126;11.542;2022-10-17T04:55:47;96297.50;;;15.37;65.75
73383;BME280;61600;48.126;11.542;2022-10-17T04:58:12;96295.19;;;15.44;65.90
73383;BME280;61600;48.126;11.542;2022-10-17T05:00:38;96297.38;;;15.42;65.85
73383;BME280;61600;48.126;11.542;2022-10-17T05:03:04;96296.97;;;15.35;65.92
73383;BME280;61600;48.126;11.542;2022-10-17T05:05:29;96301.94;;;15.14;66.59
73383;BME280;61600;48.126;11.542;2022-10-17T05:07:55;96300.97;;;15.24;66.81
73383;BME280;61600;48.126;11.542;2022-10-17T05:10:21;96307.28;;;15.24;66.73
73383;BME280;61600;48.126;11.542;2022-10-17T05:12:47;96302.16;;;15.18;66.42
73383;BME280;61600;48.126;11.542;2022-10-17T05:15:13;96294.94;;;15.08;66.44
73383;BME280;61600;48.126;11.542;2022-10-17T05:17:39;96302.72;;;15.01;66.95
73383;BME280;61600;48.126;11.542;2022-10-17T05:20:06;96304.56;;;14.87;67.64
73383;BME280;61600;48.126;11.542;2022-10-17T05:22:32;96303.81;;;15.00;67.45
73383;BME280;61600;48.126;11.542;2022-10-17T05:24:57;96304.41;;;14.97;67.70
73383;BME280;61600;48.126;11.542;2022-10-17T05:27:23;96312.47;;;14.88;67.67
73383;BME280;61600;48.126;11.542;2022-10-17T05:29:49;96315.22;;;14.88;67.32
73383;BME280;61600;48.126;11.542;2022-10-17T05:32:15;96316.25;;;14.92;66.99
73383;BME280;61600;48.126;11.542;2022-10-17T05:34:46;96319.66;;;15.03;66.59
73383;BME280;61600;48.126;11.542;2022-10-17T05:37:11;96321.28;;;15.04;66.62
73383;BME280;61600;48.126;11.542;2022-10-17T05:39:37;96326.16;;;15.07;65.91
73383;BME280;61600;48.126;11.542;2022-10-17T05:42:03;96332.69;;;15.11;66.13
73383;BME280;61600;48.126;11.542;2022-10-17T05:44:29;96328.78;;;14.98;66.29
73383;BME280;61600;48.126;11.542;2022-10-17T05:46:59;96325.22;;;14.98;66.54
73383;BME280;61600;48.126;11.542;2022-10-17T05:49:25;96338.31;;;15.01;66.06
73383;BME280;61600;48.126;11.542;2022-10-17T05:51:56;96337.50;;;15.00;66.15
73383;BME280;61600;48.126;11.542;2022-10-17T05:54:22;96346.84;;;14.99;66.52
73383;BME280;61600;48.126;11.542;2022-10-17T05:56:52;96349.78;;;15.03;66.29
73383;BME280;61600;48.126;11.542;2022-10-17T05:59:18;96350.56;;;15.09;65.86
73383;BME280;61600;48.126;11.542;2022-10-17T06:01:44;96353.78;;;15.11;65.84
73383;BME280;61600;48.126;11.542;2022-10-17T06:04:09;96355.13;;;15.13;65.93
73383;BME280;61600;48.126;11.542;2022-10-17T06:06:36;96356.03;;;15.09;65.81
73383;BME280;61600;48.126;11.542;2022-10-17T06:09:03;96360.53;;;15.18;65.59
73383;BME280;61600;48.126;11.542;2022-10-17T06:11:28;96361.34;;;15.19;65.22
73383;BME280;61600;48.126;11.542;2022-10-17T06:13:55;96363.22;;;15.23;65.34
73383;BME280;61600;48.126;11.542;2022-10-17T06:16:20;96366.09;;;15.32;65.42
73383;BME280;61600;48.126;11.542;2022-10-17T06:18:46;96371.06;;;15.30;65.35
73383;BME280;61600;48.126;11.542;2022-10-17T06:21:16;96362.53;;;15.31;64.90
73383;BME280;61600;48.126;11.542;2022-10-17T06:23:43;96359.19;;;15.34;64.69
73383;BME280;61600;48.126;11.542;2022-10-17T06:26:09;96362.69;;;15.40;64.42
73383;BME280;61600;48.126;11.542;2022-10-17T06:28:35;96362.97;;;15.38;64.49
73383;BME280;61600;48.126;11.542;2022-10-17T06:31:13;96365.72;;;15.38;64.43
73383;BME280;61600;48.126;11.542;2022-10-17T06:33:40;96364.59;;;15.39;64.19
73383;BME280;61600;48.126;11.542;2022-10-17T06:36:07;96360.66;;;15.45;64.27
73383;BME280;61600;48.126;11.542;2022-10-17T06:38:33;96364.81;;;15.43;64.59
73383;BME280;61600;48.126;11.542;2022-10-17T06:41:09;96372.97;;;15.48;64.39
73383;BME280;61600;48.126;11.542;2022-10-17T06:43:36;96361.72;;;15.49;64.48
73383;BME280;61600;48.126;11.542;2022-10-17T06:46:02;96368.25;;;15.54;64.31
73383;BME280;61600;48.126;11.542;2022-10-17T06:48:28;96369.28;;;15.58;64.01
73383;BME280;61600;48.126;11.542;2022-10-17T06:50:58;96379.56;;;15.66;63.18
73383;BME280;61600;48.126;11.542;2022-10-17T06:53:28;96385.75;;;15.58;63.65
73383;BME280;61600;48.126;11.542;2022-10-17T06:55:57;96388.53;;;15.53;63.58
73383;BME280;61600;48.126;11.542;2022-10-17T06:58:34;96389.59;;;15.57;62.74
73383;BME280;61600;48.126;11.542;2022-10-17T07:01:04;96390.94;;;15.73;62.57
73383;BME280;61600;48.126;11.542;2022-10-17T07:03:30;96392.09;;;15.72;62.72
73383;BME280;61600;48.126;11.542;2022-10-17T07:05:56;96395.56;;;15.77;62.65
73383;BME280;61600;48.126;11.542;2022-10-17T07:08:24;96395.16;;;15.84;62.35
73383;BME280;61600;48.126;11.542;2022-10-17T07:10:51;96400.25;;;15.90;62.24
73383;BME280;61600;48.126;11.542;2022-10-17T07:13:19;96392.78;;;15.96;62.07
73383;BME280;61600;48.126;11.542;2022-10-17T07:15:45;96400.81;;;16.06;61.76
73383;BME280;61600;48.126;11.542;2022-10-17T07:18:11;96400.97;;;16.15;61.47
73383;BME280;61600;48.126;11.542;2022-10-17T07:20:38;96410.41;;;16.22;61.42
73383;BME280;61600;48.126;11.542;2022-10-17T07:23:07;96404.84;;;16.27;61.05
73383;BME280;61600;48.126;11.542;2022-10-17T07:25:36;96410.44;;;16.36;60.87
73383;BME280;61600;48.126;11.542;2022-10-17T07:28:02;96412.47;;;16.44;60.75
73383;BME280;61600;48.126;11.542;2022-10-17T07:30:28;96416.16;;;16.53;60.86
73383;BME280;61600;48.126;11.542;2022-10-17T07:32:54;96421.78;;;16.62;60.61
73383;BME280;61600;48.126;11.542;2022-10-17T07:35:21;96425.75;;;16.69;60.42
73383;BME280;61600;48.126;11.542;2022-10-17T07:37:46;96430.97;;;16.84;60.36
73383;BME280;61600;48.126;11.542;2022-10-17T07:40:12;96430.94;;;16.98;59.77
73383;BME280;61600;48.126;11.542;2022-10-17T07:42:38;96434.72;;;17.02;59.57
73383;BME280;61600;48.126;11.542;2022-10-17T07:45:04;96434.50;;;17.12;59.46
73383;BME280;61600;48.126;11.542;2022-10-17T07:47:31;96432.16;;;17.19;58.82
73383;BME280;61600;48.126;11.542;2022-10-17T07:50:00;96437.41;;;17.29;59.03
73383;BME280;61600;48.126;11.542;2022-10-17T07:52:32;96441.06;;;17.38;58.50
73383;BME280;61600;48.126;11.542;2022-10-17T07:54:58;96433.75;;;17.70;57.51
73383;BME280;61600;48.126;11.542;2022-10-17T07:57:33;96435.22;;;17.54;57.76
73383;BME280;61600;48.126;11.542;2022-10-17T08:00:01;96433.38;;;17.63;57.85
73383;BME280;61600;48.126;11.542;2022-10-17T08:02:31;96445.47;;;17.75;57.42
73383;BME280;61600;48.126;11.542;2022-10-17T08:04:58;96444.75;;;17.83;57.21
73383;BME280;61600;48.126;11.542;2022-10-17T08:07:24;96443.59;;;17.84;57.82
73383;BME280;61600;48.126;11.542;2022-10-17T08:09:49;96438.47;;;18.14;56.83
73383;BME280;61600;48.126;11.542;2022-10-17T08:12:15;96438.91;;;18.29;55.96
73383;BME280;61600;48.126;11.542;2022-10-17T08:14:41;96441.22;;;18.36;55.71
73383;BME280;61600;48.126;11.542;2022-10-17T08:17:07;96444.91;;;18.54;55.56
73383;BME280;61600;48.126;11.542;2022-10-17T08:19:32;96439.50;;;18.71;54.96
73383;BME280;61600;48.126;11.542;2022-10-17T08:22:03;96440.03;;;18.51;55.58
73383;BME280;61600;48.126;11.542;2022-10-17T08:24:29;96441.34;;;18.53;56.03
73383;BME280;61600;48.126;11.542;2022-10-17T08:26:55;96440.41;;;18.58;55.88
73383;BME280;61600;48.126;11.542;2022-10-17T08:29:23;96437.69;;;18.66;56.39
73383;BME280;61600;48.126;11.542;2022-10-17T08:31:57;96447.44;;;18.72;55.92
73383;BME280;61600;48.126;11.542;2022-10-17T08:34:22;96436.75;;;18.79;56.26
73383;BME280;61600;48.126;11.542;2022-10-17T08:36:51;96442.50;;;18.91;55.77
73383;BME280;61600;48.126;11.542;2022-10-17T08:39:20;96440.44;;;19.06;55.09
73383;BME280;61600;48.126;11.542;2022-10-17T08:42:00;96433.97;;;19.10;54.59
73383;BME280;61600;48.126;11.542;2022-10-17T08:44:50;96430.75;;;19.17;53.90
73383;BME280;61600;48.126;11.542;2022-10-17T08:47:41;96430.44;;;19.35;53.39
73383;BME280;61600;48.126;11.542;2022-10-17T08:50:36;96443.00;;;19.41;53.53
73383;BME280;61600;48.126;11.542;2022-10-17T08:53:26;96446.59;;;19.59;52.91
73383;BME280;61600;48.126;11.542;2022-10-17T08:55:53;96446.75;;;19.71;52.45
73383;BME280;61600;48.126;11.542;2022-10-17T08:58:28;96440.44;;;19.79;51.92
73383;BME280;61600;48.126;11.542;2022-10-17T09:07:32;96446.25;;;19.95;50.66
73383;BME280;61600;48.126;11.542;2022-10-17T09:10:46;96450.16;;;20.20;50.95
73383;BME280;61600;48.126;11.542;2022-10-17T09:13:42;96443.34;;;20.26;50.55
73383;BME280;61600;48.126;11.542;2022-10-17T09:18:55;96429.84;;;20.33;51.24
73383;BME280;61600;48.126;11.542;2022-10-17T09:21:41;96448.03;;;20.17;51.64
73383;BME280;61600;48.126;11.542;2022-10-17T09:24:23;96443.31;;;20.43;51.24
73383;BME280;61600;48.126;11.542;2022-10-17T09:26:53;96448.97;;;20.55;50.80
73383;BME280;61600;48.126;11.542;2022-10-17T09:29:24;96449.59;;;20.69;50.50
73383;BME280;61600;48.126;11.542;2022-10-17T09:32:00;96456.72;;;20.79;50.35
73383;BME280;61600;48.126;11.542;2022-10-17T09:34:32;96455.25;;;20.81;49.80
73383;BME280;61600;48.126;11.542;2022-10-17T09:37:01;96443.34;;;20.89;50.21
73383;BME280;61600;48.126;11.542;2022-10-17T09:39:30;96453.09;;;20.96;49.99
73383;BME280;61600;48.126;11.542;2022-10-17T09:41:59;96453.22;;;20.99;49.71
73383;BME280;61600;48.126;11.542;2022-10-17T09:44:33;96450.09;;;21.09;49.06
73383;BME280;61600;48.126;11.542;2022-10-17T09:47:21;96447.25;;;21.26;48.28
73383;BME280;61600;48.126;11.542;2022-10-17T09:49:50;96448.41;;;21.25;47.83
73383;BME280;61600;48.126;11.542;2022-10-17T09:52:24;96456.28;;;21.06;48.81
73383;BME280;61600;48.126;11.542;2022-10-17T09:55:00;96449.13;;;21.14;48.03
73383;BME280;61600;48.126;11.542;2022-10-17T10:00:27;96451.44;;;21.62;47.11
73383;BME280;61600;48.126;11.542;2022-10-17T10:05:41;96449.91;;;21.73;46.42
73383;BME280;61600;48.126;11.542;2022-10-17T10:08:16;96444.38;;;22.14;45.89
73383;BME280;61600;48.126;11.542;2022-10-17T10:10:44;96453.06;;;22.13;46.04
73383;BME280;61600;48.126;11.542;2022-10-17T10:13:18;96454.47;;;22.19;45.97
73383;BME280;61600;48.126;11.542;2022-10-17T10:15:49;96455.50;;;22.47;45.12
73383;BME280;61600;48.126;11.542;2022-10-17T10:21:16;96458.69;;;22.70;45.27
73383;BME280;61600;48.126;11.542;2022-10-17T10:24:11;96463.06;;;22.38;45.16
73383;BME280;61600;48.126;11.542;2022-10-17T10:26:43;96461.28;;;22.87;44.16
73383;BME280;61600;48.126;11.542;2022-10-17T10:29:33;96461.09;;;23.16;44.47
73383;BME280;61600;48.126;11.542;2022-10-17T10:32:24;96462.84;;;23.21;43.41
73383;BME280;61600;48.126;11.542;2022-10-17T10:37:56;96447.91;;;23.62;43.28
73383;BME280;61600;48.126;11.542;2022-10-17T10:40:37;96453.91;;;23.76;43.00
73383;BME280;61600;48.126;11.542;2022-10-17T10:43:20;96450.06;;;23.93;42.25
73383;BME280;61600;48.126;11.542;2022-10-17T10:45:51;96448.38;;;23.76;42.41
73383;BME280;61600;48.126;11.542;2022-10-17T10:48:24;96453.59;;;23.65;42.18
73383;BME280;61600;48.126;11.542;2022-10-17T10:56:21;96446.06;;;24.46;41.14
73383;BME280;61600;48.126;11.542;2022-10-17T11:07:06;96449.34;;;25.07;39.10
73383;BME280;61600;48.126;11.542;2022-10-17T11:12:24;96440.31;;;24.82;39.40
73383;BME280;61600;48.126;11.542;2022-10-17T11:15:50;96441.72;;;25.19;38.22
73383;BME280;61600;48.126;11.542;2022-10-17T11:21:22;96442.88;;;25.50;37.59
73383;BME280;61600;48.126;11.542;2022-10-17T11:24:34;96432.19;;;25.67;37.40
73383;BME280;61600;48.126;11.542;2022-10-17T11:27:05;96431.03;;;25.88;36.87
73383;BME280;61600;48.126;11.542;2022-10-17T11:29:38;96432.28;;;25.90;36.57
73383;BME280;61600;48.126;11.542;2022-10-17T11:32:28;96430.16;;;25.83;37.03
73383;BME280;61600;48.126;11.542;2022-10-17T11:38:19;96441.13;;;26.11;35.74
73383;BME280;61600;48.126;11.542;2022-10-17T11:40:55;96436.03;;;25.98;36.02
73383;BME280;61600;48.126;11.542;2022-10-17T11:43:31;96437.78;;;26.21;36.79
73383;BME280;61600;48.126;11.542;2022-10-17T11:46:03;96432.13;;;26.18;36.31
73383;BME280;61600;48.126;11.542;2022-10-17T11:48:38;96432.78;;;26.50;37.10
73383;BME280;61600;48.126;11.542;2022-10-17T11:51:11;96438.00;;;26.51;35.60
73383;BME280;61600;48.126;11.542;2022-10-17T11:53:49;96427.56;;;26.48;34.73
73383;BME280;61600;48.126;11.542;2022-10-17T11:56:37;96433.13;;;26.67;34.94
73383;BME280;61600;48.126;11.542;2022-10-17T12:02:00;96427.22;;;26.92;35.08
73383;BME280;61600;48.126;11.542;2022-10-17T12:04:52;96426.06;;;27.15;37.12
73383;BME280;61600;48.126;11.542;2022-10-17T12:07:52;96422.75;;;27.10;34.36
73383;BME280;61600;48.126;11.542;2022-10-17T12:10:41;96422.75;;;27.33;37.30
73383;BME280;61600;48.126;11.542;2022-10-17T12:15:57;96415.88;;;27.49;34.09
73383;BME280;61600;48.126;11.542;2022-10-17T12:18:42;96410.50;;;27.63;31.82
73383;BME280;61600;48.126;11.542;2022-10-17T12:21:12;96414.38;;;27.33;32.93
73383;BME280;61600;48.126;11.542;2022-10-17T12:23:38;96420.22;;;27.47;32.88
73383;BME280;61600;48.126;11.542;2022-10-17T12:26:09;96414.09;;;27.64;34.03
73383;BME280;61600;48.126;11.542;2022-10-17T12:28:46;96410.84;;;27.88;34.05
73383;BME280;61600;48.126;11.542;2022-10-17T12:33:51;96411.28;;;27.15;32.66
73383;BME280;61600;48.126;11.542;2022-10-17T12:49:23;96403.78;;;27.68;30.86
73383;BME280;61600;48.126;11.542;2022-10-17T12:52:15;96409.56;;;28.08;31.37
73383;BME280;61600;48.126;11.542;2022-10-17T12:57:21;96414.41;;;28.45;28.74
73383;BME280;61600;48.126;11.542;2022-10-17T12:59:51;96404.06;;;28.49;29.27
73383;BME280;61600;48.126;11.542;2022-10-17T13:02:20;96408.38;;;28.72;28.84
73383;BME280;61600;48.126;11.542;2022-10-17T13:04:49;96402.63;;;28.62;27.42
73383;BME280;61600;48.126;11.542;2022-10-17T13:07:20;96392.41;;;28.76;27.95
73383;BME280;61600;48.126;11.542;2022-10-17T13:09:48;96405.06;;;29.04;27.62
73383;BME280;61600;48.126;11.542;2022-10-17T13:12:22;96401.94;;;29.09;26.61
73383;BME280;61600;48.126;11.542;2022-10-17T13:14:52;96403.41;;;28.99;26.89
73383;BME280;61600;48.126;11.542;2022-10-17T13:17:27;96393.56;;;29.12;27.41
73383;BME280;61600;48.126;11.542;2022-10-17T13:19:58;96401.00;;;29.42;26.69
73383;BME280;61600;48.126;11.542;2022-10-17T13:22:33;96393.22;;;29.68;28.20
73383;BME280;61600;48.126;11.542;2022-10-17T13:25:13;96392.19;;;29.87;27.40
73383;BME280;61600;48.126;11.542;2022-10-17T13:27:39;96387.38;;;29.91;27.40
73383;BME280;61600;48.126;11.542;2022-10-17T13:30:22;96391.06;;;30.09;27.62
73383;BME280;61600;48.126;11.542;2022-10-17T13:32:49;96393.00;;;29.98;27.66
73383;BME280;61600;48.126;11.542;2022-10-17T13:35:22;96402.03;;;30.36;27.94
73383;BME280;61600;48.126;11.542;2022-10-17T13:38:05;96400.56;;;30.66;27.75
73383;BME280;61600;48.126;11.542;2022-10-17T13:40:40;96392.97;;;30.74;26.27
73383;BME280;61600;48.126;11.542;2022-10-17T13:43:17;96391.38;;;30.84;26.73
73383;BME280;61600;48.126;11.542;2022-10-17T13:45:54;96386.19;;;30.96;26.40
73383;BME280;61600;48.126;11.542;2022-10-17T13:48:26;96392.09;;;30.56;26.71
73383;BME280;61600;48.126;11.542;2022-10-17T13:50:57;96387.03;;;31.21;26.34
73383;BME280;61600;48.126;11.542;2022-10-17T13:53:30;96392.66;;;31.21;25.95
73383;BME280;61600;48.126;11.542;2022-10-17T13:56:00;96395.03;;;31.02;25.50
73383;BME280;61600;48.126;11.542;2022-10-17T13:58:39;96390.25;;;31.16;26.89
73383;BME280;61600;48.126;11.542;2022-10-17T14:01:06;96391.84;;;31.17;25.72
73383;BME280;61600;48.126;11.542;2022-10-17T14:03:35;96381.81;;;31.24;26.33
73383;BME280;61600;48.126;11.542;2022-10-17T14:06:11;96396.25;;;31.33;26.60
73383;BME280;61600;48.126;11.542;2022-10-17T14:08:38;96394.69;;;30.10;27.28
73383;BME280;61600;48.126;11.542;2022-10-17T14:11:20;96396.81;;;30.38;27.27
73383;BME280;61600;48.126;11.542;2022-10-17T14:13:56;96397.59;;;30.35;27.45
73383;BME280;61600;48.126;11.542;2022-10-17T14:16:24;96393.75;;;30.71;26.95
73383;BME280;61600;48.126;11.542;2022-10-17T14:18:52;96393.78;;;30.85;26.88
73383;BME280;61600;48.126;11.542;2022-10-17T14:21:24;96395.69;;;30.53;27.23
73383;BME280;61600;48.126;11.542;2022-10-17T14:24:23;96398.91;;;30.58;27.37
73383;BME280;61600;48.126;11.542;2022-10-17T14:26:53;96407.41;;;30.80;27.75
73383;BME280;61600;48.126;11.542;2022-10-17T14:29:30;96396.97;;;30.73;27.36
73383;BME280;61600;48.126;11.542;2022-10-17T14:32:05;96400.19;;;30.71;27.43
73383;BME280;61600;48.126;11.542;2022-10-17T14:34:38;96405.81;;;30.75;27.71
73383;BME280;61600;48.126;11.542;2022-10-17T14:37:09;96410.66;;;30.85;28.04
73383;BME280;61600;48.126;11.542;2022-10-17T14:39:38;96407.41;;;30.87;27.68
73383;BME280;61600;48.126;11.542;2022-10-17T14:42:04;96404.97;;;30.64;27.98
73383;BME280;61600;48.126;11.542;2022-10-17T14:44:40;96402.19;;;30.75;27.81
73383;BME280;61600;48.126;11.542;2022-10-17T14:47:19;96409.50;;;31.07;27.85
73383;BME280;61600;48.126;11.542;2022-10-17T14:49:49;96410.72;;;31.06;27.60